Time;durP1;ratioP1;P1;durP2;ratioP2;P2;SDS_P1;SDS_P2;PMS_P1;PMS_P2;Temp;Humidity;BMP_temperature;BMP_pressure;BME280_temperature;BME280_humidity;BME280_pressure;Samples;Min_cycle;Max_cycle;Signal;HPM_P1;HPM_P2
2023/04/13 00:01:13;;;;;;;0.70;0.50;;;13.00;82.20;13.10;95311.00;;;;5017694;28;20198;-79
2023/04/13 00:03:40;;;;;;;1.00;0.43;;;13.00;82.20;13.10;95311.00;;;;5002570;28;20220;-79
2023/04/13 00:06:09;;;;;;;0.40;0.37;;;13.00;82.20;13.10;95307.00;;;;4998788;28;20257;-79
2023/04/13 00:08:37;;;;;;;0.20;0.20;;;13.00;82.10;13.10;95306.00;;;;4999779;28;20201;-79
2023/04/13 00:11:06;;;;;;;1.27;0.27;;;13.10;82.20;13.10;95301.00;;;;4999940;28;20224;-79
2023/04/13 00:13:41;;;;;;;0.40;0.30;;;13.10;82.10;13.10;95297.00;;;;5024994;28;20733;-79
2023/04/13 00:16:12;;;;;;;0.53;0.20;;;13.10;82.20;13.10;95312.00;;;;5016045;28;20201;-79
2023/04/13 00:18:39;;;;;;;0.43;0.30;;;13.10;82.20;13.10;95317.00;;;;5018521;28;20249;-79
2023/04/13 00:21:07;;;;;;;0.40;0.40;;;13.10;82.10;13.10;95325.00;;;;5023748;28;20719;-79
2023/04/13 00:23:36;;;;;;;1.00;0.50;;;13.10;82.00;13.10;95316.00;;;;5016260;28;20261;-79
2023/04/13 00:26:03;;;;;;;0.30;0.30;;;13.10;82.00;13.10;95320.00;;;;5019067;28;20208;-79
2023/04/13 00:28:30;;;;;;;0.47;0.47;;;13.10;82.00;13.10;95315.00;;;;5022709;28;20584;-79
2023/04/13 00:30:57;;;;;;;0.30;0.30;;;13.10;82.00;13.10;95330.00;;;;5000664;28;20592;-79
2023/04/13 00:33:26;;;;;;;1.63;0.60;;;13.10;82.00;13.10;95333.00;;;;5016653;28;20215;-79
2023/04/13 00:35:55;;;;;;;0.60;0.30;;;13.10;82.00;13.10;95329.00;;;;5002132;28;20200;-79
2023/04/13 00:38:26;;;;;;;1.27;0.40;;;13.00;81.80;13.10;95335.00;;;;4998876;28;20609;-79
2023/04/13 00:40:53;;;;;;;0.30;0.30;;;13.00;81.50;13.00;95334.00;;;;5016721;28;20221;-79
2023/04/13 00:43:20;;;;;;;0.57;0.20;;;13.00;81.40;13.00;95337.00;;;;5024470;28;20237;-79
2023/04/13 00:45:48;;;;;;;0.30;0.30;;;13.00;82.30;13.00;95332.00;;;;5016594;28;20284;-79
2023/04/13 00:48:16;;;;;;;0.30;0.30;;;13.00;81.70;12.90;95335.00;;;;5017050;28;20202;-79
2023/04/13 00:50:45;;;;;;;0.87;0.30;;;12.90;81.70;12.90;95338.00;;;;5020321;28;20293;-80
2023/04/13 00:53:12;;;;;;;0.30;0.30;;;12.90;81.50;12.90;95367.00;;;;5015693;28;20734;-79
2023/04/13 00:55:41;;;;;;;0.10;0.10;;;12.90;81.30;12.80;95387.00;;;;4998777;28;20209;-79
2023/04/13 00:58:08;;;;;;;0.40;0.27;;;12.90;81.00;12.70;95396.00;;;;5015532;28;20762;-80
2023/04/13 01:00:37;;;;;;;0.40;0.10;;;12.80;79.90;12.50;95387.00;;;;5013317;28;20357;-79
2023/04/13 01:03:05;;;;;;;1.60;0.10;;;12.70;78.90;12.30;95377.00;;;;5021547;28;20221;-79
2023/04/13 01:05:41;;;;;;;0.00;0.00;;;12.60;78.50;12.10;95389.00;;;;4995655;28;20245;-79
2023/04/13 01:08:19;;;;;;;0.00;0.00;;;12.40;78.30;11.90;95381.00;;;;5008893;28;20644;-79
2023/04/13 01:10:56;;;;;;;0.10;0.10;;;12.30;78.00;11.70;95381.00;;;;5012309;28;20198;-78
2023/04/13 01:13:31;;;;;;;0.00;0.00;;;12.10;77.80;11.60;95385.00;;;;5019975;28;20224;-78
2023/04/13 01:16:06;;;;;;;0.10;0.10;;;12.00;78.30;11.50;95382.00;;;;5020768;28;20492;-79
2023/04/13 01:18:38;;;;;;;0.10;0.10;;;11.90;78.60;11.40;95383.00;;;;5005285;28;20576;-79
2023/04/13 01:21:10;;;;;;;0.10;0.10;;;11.70;79.00;11.30;95379.00;;;;5013741;28;20559;-78
2023/04/13 01:23:55;;;;;;;0.47;0.00;;;11.60;79.20;11.30;95387.00;;;;5008398;28;20213;-79
2023/04/13 01:26:22;;;;;;;0.10;0.00;;;11.60;79.40;11.20;95378.00;;;;5013240;28;20260;-78
2023/04/13 01:28:53;;;;;;;0.93;0.10;;;11.50;79.70;11.20;95361.00;;;;5026943;28;20275;-79
2023/04/13 01:31:21;;;;;;;0.43;0.10;;;11.40;79.80;11.20;95354.00;;;;5033296;28;20259;-78
2023/04/13 01:33:48;;;;;;;0.20;0.10;;;11.40;80.20;11.10;95352.00;;;;5029632;28;20228;-79
2023/04/13 01:36:16;;;;;;;0.20;0.10;;;11.30;80.40;11.10;95350.00;;;;4996606;28;20201;-79
2023/04/13 01:38:43;;;;;;;0.00;0.00;;;11.30;80.60;11.10;95346.00;;;;5025614;28;20656;-78
2023/04/13 01:41:11;;;;;;;0.40;0.00;;;11.30;80.60;11.10;95346.00;;;;5003721;28;20201;-79
2023/04/13 01:43:39;;;;;;;0.10;0.10;;;11.20;80.70;11.10;95346.00;;;;4999924;28;20309;-79
2023/04/13 01:46:12;;;;;;;0.00;0.00;;;11.20;80.80;11.10;95358.00;;;;5003183;28;20202;-79
2023/04/13 01:48:47;;;;;;;0.00;0.00;;;11.20;81.20;11.20;95353.00;;;;5019324;28;20206;-78
2023/04/13 01:51:18;;;;;;;0.00;0.00;;;11.20;81.40;11.20;95354.00;;;;5004508;28;20674;-78
2023/04/13 01:53:53;;;;;;;0.20;0.20;;;11.20;81.20;11.20;95367.00;;;;5021796;28;20222;-78
2023/04/13 01:56:21;;;;;;;0.97;0.00;;;11.20;81.90;11.20;95364.00;;;;5003469;28;20568;-78
2023/04/13 01:58:56;;;;;;;0.63;0.00;;;11.20;81.30;11.20;95374.00;;;;5022380;28;20272;-78
2023/04/13 02:01:25;;;;;;;2.20;0.30;;;11.20;81.50;11.20;95363.00;;;;5024354;28;20207;-78
2023/04/13 02:03:52;;;;;;;1.23;0.00;;;11.30;81.60;11.30;95365.00;;;;5031774;28;20276;-78
2023/04/13 02:06:21;;;;;;;0.10;0.10;;;11.30;81.70;11.30;95369.00;;;;5021314;28;20205;-78
2023/04/13 02:08:48;;;;;;;0.10;0.10;;;11.30;81.70;11.30;95375.00;;;;5025016;28;20201;-78
2023/04/13 02:11:16;;;;;;;0.43;0.03;;;11.30;81.70;11.30;95377.00;;;;5025291;28;20201;-78
2023/04/13 02:13:43;;;;;;;0.40;0.10;;;11.30;81.70;11.30;95381.00;;;;5022215;28;20222;-78
2023/04/13 02:16:10;;;;;;;0.10;0.10;;;11.30;81.70;11.30;95380.00;;;;4983409;28;20207;-78
2023/04/13 02:18:39;;;;;;;0.03;0.03;;;11.30;81.50;11.30;95369.00;;;;5023001;28;20880;-78
2023/04/13 02:21:10;;;;;;;0.00;0.00;;;11.30;81.40;11.30;95371.00;;;;5013996;28;20288;-78
2023/04/13 02:23:39;;;;;;;0.33;0.00;;;11.30;81.40;11.30;95371.00;;;;5004346;28;20252;-78
2023/04/13 02:26:08;;;;;;;0.00;0.00;;;11.30;81.50;11.30;95371.00;;;;5003914;28;20230;-78
2023/04/13 02:28:36;;;;;;;0.10;0.10;;;11.30;81.50;11.30;95362.00;;;;5007322;28;20285;-79
2023/04/13 02:31:04;;;;;;;0.17;0.00;;;11.30;81.60;11.30;95360.00;;;;5005708;28;20189;-78
2023/04/13 02:33:32;;;;;;;0.83;0.10;;;11.30;81.60;11.30;95376.00;;;;5007659;28;20244;-78
2023/04/13 02:36:04;;;;;;;0.00;0.00;;;11.30;81.60;11.30;95385.00;;;;5021943;28;20204;-78
2023/04/13 02:38:32;;;;;;;1.20;0.20;;;11.30;81.50;11.30;95391.00;;;;5018223;28;20225;-78
2023/04/13 02:41:01;;;;;;;0.13;0.10;;;11.30;81.50;11.30;95389.00;;;;5013023;28;20240;-78
2023/04/13 02:43:28;;;;;;;3.03;0.33;;;11.30;81.40;11.30;95388.00;;;;5031144;28;20213;-78
2023/04/13 02:45:57;;;;;;;0.20;0.00;;;11.30;81.30;11.30;95392.00;;;;5016849;28;20243;-79
2023/04/13 02:48:25;;;;;;;0.10;0.10;;;11.30;81.20;11.30;95394.00;;;;5026192;28;20201;-78
2023/04/13 02:50:53;;;;;;;0.10;0.10;;;11.30;81.20;11.30;95401.00;;;;5026507;28;20223;-78
2023/04/13 02:53:23;;;;;;;0.73;0.10;;;11.30;81.40;11.30;95395.00;;;;5025188;28;20220;-78
2023/04/13 02:55:51;;;;;;;0.10;0.00;;;11.30;81.60;11.30;95400.00;;;;5022492;28;20265;-79
2023/04/13 02:58:20;;;;;;;0.10;0.10;;;11.30;81.60;11.30;95405.00;;;;5015795;28;20232;-79
2023/04/13 03:00:48;;;;;;;0.17;0.17;;;11.30;81.60;11.30;95404.00;;;;5015432;28;20202;-79
2023/04/13 03:03:17;;;;;;;0.90;0.10;;;11.30;81.60;11.30;95410.00;;;;4998647;28;20324;-78
2023/04/13 03:05:45;;;;;;;0.20;0.20;;;11.30;81.60;11.30;95424.00;;;;5022674;28;20726;-79
2023/04/13 03:08:13;;;;;;;0.10;0.07;;;11.30;81.50;11.30;95421.00;;;;5022481;28;20682;-79
2023/04/13 03:10:42;;;;;;;0.37;0.30;;;11.30;81.60;11.30;95423.00;;;;4999688;28;20285;-78
2023/04/13 03:13:09;;;;;;;0.10;0.10;;;11.30;81.70;11.30;95418.00;;;;5006738;28;20217;-78
2023/04/13 03:15:36;;;;;;;0.30;0.13;;;11.30;81.80;11.30;95421.00;;;;5020775;28;20193;-78
2023/04/13 03:18:04;;;;;;;0.00;0.00;;;11.30;81.70;11.30;95414.00;;;;5005776;28;20225;-77
2023/04/13 03:20:31;;;;;;;0.10;0.10;;;11.30;81.70;11.30;95407.00;;;;5023208;28;20201;-79
2023/04/13 03:23:00;;;;;;;0.23;0.10;;;11.40;81.70;11.30;95403.00;;;;5033079;28;20721;-78
2023/04/13 03:25:27;;;;;;;1.07;0.10;;;11.30;81.50;11.30;95407.00;;;;5028415;28;20224;-79
2023/04/13 03:27:58;;;;;;;0.10;0.10;;;11.30;81.40;11.30;95397.00;;;;5018557;28;20214;-78
2023/04/13 03:30:26;;;;;;;0.20;0.10;;;11.30;81.20;11.30;95396.00;;;;5027962;28;20288;-78
2023/04/13 03:32:53;;;;;;;0.10;0.10;;;11.30;81.10;11.20;95382.00;;;;5014492;28;20213;-78
2023/04/13 03:35:20;;;;;;;0.10;0.10;;;11.30;81.10;11.20;95387.00;;;;5016334;28;20647;-78
2023/04/13 03:37:47;;;;;;;0.20;0.20;;;11.30;81.00;11.20;95380.00;;;;5027974;28;20223;-78
2023/04/13 03:40:14;;;;;;;0.10;0.10;;;11.30;81.00;11.20;95383.00;;;;5019220;28;20289;-78
2023/04/13 03:42:42;;;;;;;0.13;0.13;;;11.30;81.00;11.20;95388.00;;;;5032866;28;20602;-78
2023/04/13 03:45:12;;;;;;;0.10;0.10;;;11.30;81.00;11.20;95393.00;;;;5009530;28;20201;-78
2023/04/13 03:47:39;;;;;;;0.30;0.20;;;11.30;81.00;11.20;95380.00;;;;5015786;28;20200;-78
2023/04/13 03:50:09;;;;;;;0.07;0.07;;;11.30;81.10;11.20;95384.00;;;;5018569;28;20190;-78
2023/04/13 03:52:36;;;;;;;0.30;0.10;;;11.30;81.00;11.20;95381.00;;;;5023449;28;20226;-78
2023/04/13 03:55:04;;;;;;;0.10;0.10;;;11.30;80.90;11.10;95376.00;;;;5018800;28;20710;-79
2023/04/13 03:57:31;;;;;;;1.90;0.53;;;11.20;80.80;11.10;95384.00;;;;5002230;28;20201;-78
2023/04/13 03:59:58;;;;;;;0.07;0.07;;;11.20;80.70;11.10;95384.00;;;;5013925;28;20701;-78
2023/04/13 04:02:27;;;;;;;0.20;0.10;;;11.20;80.80;11.10;95388.00;;;;5015576;28;20317;-79
2023/04/13 04:04:54;;;;;;;0.20;0.20;;;11.20;80.80;11.10;95391.00;;;;5014690;28;20204;-79
2023/04/13 04:07:22;;;;;;;0.30;0.30;;;11.20;80.80;11.20;95401.00;;;;5026477;28;20213;-79
2023/04/13 04:09:50;;;;;;;0.20;0.20;;;11.20;81.00;11.20;95400.00;;;;5027799;28;20201;-78
2023/04/13 04:12:17;;;;;;;0.17;0.10;;;11.20;81.70;11.10;95402.00;;;;5024000;28;20194;-78
2023/04/13 04:14:44;;;;;;;0.20;0.20;;;11.20;80.80;11.10;95408.00;;;;5034006;28;20289;-79
2023/04/13 04:17:12;;;;;;;0.20;0.20;;;11.20;80.80;11.10;95413.00;;;;5026341;28;20765;-79
2023/04/13 04:19:41;;;;;;;0.20;0.20;;;11.20;80.90;11.20;95407.00;;;;5026352;28;20228;-79
2023/04/13 04:22:09;;;;;;;0.37;0.20;;;11.20;80.90;11.10;95397.00;;;;4988265;28;20623;-79
2023/04/13 04:24:37;;;;;;;0.20;0.20;;;11.20;80.90;11.20;95393.00;;;;5030229;28;20228;-79
2023/04/13 04:27:04;;;;;;;0.47;0.20;;;11.20;80.80;11.20;95388.00;;;;5030293;28;20290;-79
2023/04/13 04:29:34;;;;;;;0.77;0.20;;;11.20;80.80;11.20;95397.00;;;;5008561;28;20201;-79
2023/04/13 04:32:02;;;;;;;0.50;0.30;;;11.20;80.60;11.20;95393.00;;;;5032262;28;20193;-79
2023/04/13 04:34:30;;;;;;;0.70;0.70;;;11.20;80.80;11.10;95392.00;;;;5024766;28;20201;-79
2023/04/13 04:36:58;;;;;;;0.70;0.40;;;11.20;80.80;11.20;95405.00;;;;5031214;28;20658;-79
2023/04/13 04:39:29;;;;;;;0.63;0.63;;;11.20;80.80;11.20;95401.00;;;;5018638;28;20253;-79
2023/04/13 04:42:02;;;;;;;0.60;0.60;;;11.20;80.80;11.20;95401.00;;;;5016891;28;20213;-79
2023/04/13 04:44:30;;;;;;;0.40;0.40;;;11.20;80.90;11.20;95409.00;;;;5022485;28;20205;-79
2023/04/13 04:46:58;;;;;;;1.23;0.60;;;11.20;80.80;11.20;95403.00;;;;5035111;28;20197;-79
2023/04/13 04:49:26;;;;;;;0.93;0.30;;;11.20;80.70;11.10;95403.00;;;;5033273;28;20207;-79
2023/04/13 04:51:54;;;;;;;0.70;0.20;;;11.20;80.60;11.10;95412.00;;;;5033851;28;20251;-79
2023/04/13 04:54:23;;;;;;;0.20;0.20;;;11.20;80.70;11.10;95396.00;;;;5017340;28;20674;-79
2023/04/13 04:56:51;;;;;;;0.30;0.30;;;11.20;80.80;11.10;95402.00;;;;5021283;28;20281;-79
2023/04/13 04:59:19;;;;;;;1.63;0.33;;;11.20;80.80;11.10;95401.00;;;;5000338;28;20225;-79
2023/04/13 05:01:48;;;;;;;0.30;0.30;;;11.20;80.80;11.10;95414.00;;;;5018796;28;20276;-79
2023/04/13 05:04:15;;;;;;;0.20;0.20;;;11.20;80.80;11.10;95416.00;;;;5021394;28;20229;-79
2023/04/13 05:06:43;;;;;;;0.50;0.30;;;11.20;80.70;11.10;95423.00;;;;5015628;28;20978;-79
2023/04/13 05:09:10;;;;;;;0.13;0.13;;;11.20;80.70;11.10;95423.00;;;;5017746;28;20205;-79
2023/04/13 05:11:40;;;;;;;0.57;0.20;;;11.10;80.60;11.10;95421.00;;;;5019236;28;20281;-79
2023/04/13 05:14:07;;;;;;;0.30;0.30;;;11.10;80.60;11.10;95414.00;;;;5031943;28;20305;-79
2023/04/13 05:16:34;;;;;;;0.20;0.20;;;11.10;80.80;11.10;95419.00;;;;5024250;28;20224;-79
2023/04/13 05:19:04;;;;;;;0.20;0.20;;;11.10;80.60;11.10;95416.00;;;;5026961;28;20222;-79
2023/04/13 05:21:32;;;;;;;0.50;0.10;;;11.10;80.50;11.10;95415.00;;;;5008522;28;20207;-79
2023/04/13 05:23:59;;;;;;;0.20;0.20;;;11.10;81.00;11.10;95412.00;;;;5019450;28;20214;-79
2023/04/13 05:26:27;;;;;;;0.20;0.17;;;11.10;80.30;11.10;95419.00;;;;5018120;28;20213;-79
2023/04/13 05:28:56;;;;;;;0.40;0.30;;;11.10;80.30;11.10;95418.00;;;;5018931;28;20206;-80
2023/04/13 05:31:24;;;;;;;0.80;0.80;;;11.20;80.40;11.10;95417.00;;;;5026403;28;20404;-79
2023/04/13 05:33:52;;;;;;;0.87;0.60;;;11.10;80.40;11.10;95427.00;;;;5031324;28;20217;-79
2023/04/13 05:36:19;;;;;;;0.67;0.60;;;11.10;80.40;11.10;95434.00;;;;5012986;28;20572;-79
2023/04/13 05:38:46;;;;;;;0.70;0.70;;;11.10;80.40;11.10;95437.00;;;;5024577;28;20245;-79
2023/04/13 05:41:13;;;;;;;0.43;0.43;;;11.20;80.40;11.10;95428.00;;;;4996895;28;20206;-79
2023/04/13 05:43:43;;;;;;;0.50;0.50;;;11.20;80.50;11.20;95433.00;;;;5020227;28;20237;-78
2023/04/13 05:46:12;;;;;;;0.33;0.33;;;11.20;80.40;11.20;95429.00;;;;5023662;28;20197;-79
2023/04/13 05:48:40;;;;;;;0.30;0.30;;;11.20;80.50;11.30;95434.00;;;;5028168;28;20202;-79
2023/04/13 05:51:08;;;;;;;0.30;0.30;;;11.20;80.50;11.30;95444.00;;;;5023365;28;20212;-79
2023/04/13 05:53:36;;;;;;;1.33;0.40;;;11.20;80.70;11.40;95444.00;;;;5010223;28;20313;-78
2023/04/13 05:56:03;;;;;;;0.43;0.40;;;11.30;80.80;11.40;95450.00;;;;5015564;28;20205;-79
2023/04/13 05:58:30;;;;;;;0.87;0.37;;;11.30;81.00;11.50;95452.00;;;;5021778;28;20616;-79
2023/04/13 06:00:57;;;;;;;0.60;0.60;;;11.30;80.90;11.50;95461.00;;;;5026611;28;20221;-79
2023/04/13 06:03:28;;;;;;;0.20;0.20;;;11.40;80.80;11.60;95462.00;;;;5012274;28;20751;-79
2023/04/13 06:05:55;;;;;;;0.30;0.30;;;11.40;80.80;11.60;95463.00;;;;5021546;28;20683;-79
2023/04/13 06:08:23;;;;;;;0.37;0.30;;;11.40;80.80;11.70;95460.00;;;;5026561;28;20234;-79
2023/04/13 06:10:50;;;;;;;0.37;0.37;;;11.40;80.80;11.70;95463.00;;;;5019766;28;20949;-79
2023/04/13 06:13:18;;;;;;;0.30;0.30;;;11.50;80.90;11.80;95466.00;;;;5028024;28;20772;-78
2023/04/13 06:15:45;;;;;;;0.60;0.60;;;11.50;80.90;11.80;95466.00;;;;5030684;28;20264;-79
2023/04/13 06:18:12;;;;;;;0.40;0.30;;;11.50;80.80;11.80;95469.00;;;;5006163;28;20221;-79
2023/04/13 06:20:41;;;;;;;0.40;0.40;;;11.60;80.80;11.90;95479.00;;;;5034199;28;20260;-79
2023/04/13 06:23:08;;;;;;;0.50;0.30;;;11.60;80.90;11.90;95482.00;;;;5013138;28;20256;-79
2023/04/13 06:25:37;;;;;;;1.37;0.40;;;11.70;80.80;11.90;95484.00;;;;5029864;28;20193;-79
2023/04/13 06:28:05;;;;;;;0.57;0.57;;;11.70;80.70;12.00;95482.00;;;;5017974;28;20193;-79
2023/04/13 06:30:32;;;;;;;0.70;0.47;;;11.70;80.30;11.90;95492.00;;;;5023146;28;20275;-79
2023/04/13 06:32:59;;;;;;;1.77;0.47;;;11.70;80.00;11.90;95495.00;;;;5018925;28;20663;-79
2023/04/13 06:35:28;;;;;;;0.27;0.27;;;11.80;79.90;11.90;95489.00;;;;5002864;28;20248;-80
2023/04/13 06:37:58;;;;;;;0.30;0.23;;;11.80;79.50;11.90;95493.00;;;;5012522;28;20260;-79
2023/04/13 06:40:26;;;;;;;0.30;0.30;;;11.80;79.20;11.90;95494.00;;;;5037557;28;20304;-79
2023/04/13 06:42:55;;;;;;;1.40;0.40;;;11.80;79.10;11.90;95494.00;;;;5013384;28;20276;-79
2023/04/13 06:45:22;;;;;;;0.50;0.30;;;11.80;79.20;11.90;95495.00;;;;5028345;28;20280;-79
2023/04/13 06:47:52;;;;;;;0.60;0.40;;;11.80;79.40;11.90;95500.00;;;;5026150;28;20256;-80
2023/04/13 06:50:19;;;;;;;0.20;0.20;;;11.80;79.20;11.80;95497.00;;;;5027823;28;20201;-80
2023/04/13 06:52:48;;;;;;;0.20;0.20;;;11.80;79.10;11.80;95503.00;;;;5026915;28;20220;-81
2023/04/13 06:55:17;;;;;;;0.40;0.40;;;11.80;79.00;11.90;95502.00;;;;5029440;28;20281;-80
2023/04/13 06:57:45;;;;;;;0.40;0.40;;;11.80;79.20;11.90;95495.00;;;;5032277;28;20261;-80
2023/04/13 07:00:14;;;;;;;0.33;0.33;;;11.80;79.30;12.00;95502.00;;;;5026598;28;20224;-80
2023/04/13 07:02:42;;;;;;;0.20;0.20;;;11.80;79.40;12.00;95505.00;;;;5025106;28;20693;-80
2023/04/13 07:05:10;;;;;;;0.60;0.20;;;11.90;79.40;12.10;95497.00;;;;5021051;28;20217;-81
2023/04/13 07:07:38;;;;;;;1.13;0.50;;;11.90;79.20;12.10;95493.00;;;;5035018;28;20209;-81
2023/04/13 07:10:07;;;;;;;0.40;0.40;;;11.90;78.80;12.20;95489.00;;;;5034731;28;20209;-80
2023/04/13 07:12:36;;;;;;;1.80;0.50;;;12.00;79.20;12.20;95495.00;;;;5005137;28;20281;-80
2023/04/13 07:15:04;;;;;;;0.40;0.40;;;12.00;79.40;12.30;95496.00;;;;5024433;28;20225;-80
2023/04/13 07:17:31;;;;;;;0.33;0.33;;;12.10;79.60;12.40;95497.00;;;;5026589;28;20233;-81
2023/04/13 07:19:58;;;;;;;0.60;0.40;;;12.10;79.70;12.40;95503.00;;;;5018886;28;20255;-81
2023/04/13 07:22:30;;;;;;;0.50;0.50;;;12.20;79.60;12.50;95510.00;;;;5029748;28;20221;-80
2023/04/13 07:24:58;;;;;;;0.60;0.40;;;12.20;79.80;12.60;95505.00;;;;5040378;28;20700;-80
2023/04/13 07:27:25;;;;;;;0.30;0.30;;;12.30;79.60;12.70;95494.00;;;;5004803;28;20216;-80
2023/04/13 07:29:55;;;;;;;0.43;0.40;;;12.40;79.10;12.70;95497.00;;;;5013575;28;20194;-80
2023/04/13 07:32:22;;;;;;;0.43;0.43;;;12.40;78.70;12.80;95514.00;;;;5028450;28;20360;-81
2023/04/13 07:34:50;;;;;;;0.50;0.30;;;12.50;78.40;12.80;95511.00;;;;5025252;28;20202;-80
2023/04/13 07:37:17;;;;;;;1.13;0.40;;;12.50;78.40;12.90;95503.00;;;;5024740;28;20240;-79
2023/04/13 07:39:45;;;;;;;0.70;0.57;;;12.60;78.00;13.00;95509.00;;;;5039958;28;20221;-80
2023/04/13 07:42:12;;;;;;;0.87;0.50;;;12.60;77.60;13.00;95508.00;;;;4995950;28;20201;-80
2023/04/13 07:44:39;;;;;;;0.90;0.50;;;12.70;77.20;13.00;95507.00;;;;5050928;28;20205;-80
2023/04/13 07:47:08;;;;;;;0.33;0.33;;;12.80;77.30;13.10;95508.00;;;;5033701;28;20198;-81
2023/04/13 07:49:37;;;;;;;0.40;0.30;;;12.80;77.60;13.20;95512.00;;;;5030206;28;20291;-81
2023/04/13 07:52:05;;;;;;;0.77;0.30;;;12.90;78.20;13.30;95521.00;;;;5016142;28;20221;-81
2023/04/13 07:54:33;;;;;;;1.40;0.67;;;13.00;77.80;13.40;95514.00;;;;5023992;28;20282;-83
2023/04/13 07:57:01;;;;;;;1.33;0.77;;;13.10;77.10;13.50;95505.00;;;;5023725;28;20750;-82
2023/04/13 07:59:29;;;;;;;1.37;0.60;;;13.20;77.00;13.60;95505.00;;;;5024332;28;20229;-81
2023/04/13 08:01:56;;;;;;;1.23;0.57;;;13.20;76.80;13.60;95508.00;;;;5021948;28;20200;-81
2023/04/13 08:04:25;;;;;;;1.93;0.57;;;13.30;76.40;13.60;95507.00;;;;5023403;28;20218;-81
2023/04/13 08:06:52;;;;;;;0.93;0.40;;;13.30;76.30;13.70;95505.00;;;;5006345;28;20194;-80
2023/04/13 08:09:21;;;;;;;1.13;0.60;;;13.40;76.60;13.80;95512.00;;;;5008773;28;20194;-81
2023/04/13 08:11:49;;;;;;;1.70;0.70;;;13.50;76.50;13.90;95512.00;;;;5002068;28;20249;-80
2023/04/13 08:14:16;;;;;;;2.70;0.70;;;13.50;75.40;13.90;95502.00;;;;5026427;28;20221;-82
2023/04/13 08:16:44;;;;;;;0.67;0.50;;;13.60;75.40;14.00;95498.00;;;;5007583;28;20194;-82
2023/04/13 08:19:12;;;;;;;1.43;0.40;;;13.70;75.50;14.00;95492.00;;;;4993643;28;20209;-82
2023/04/13 08:21:42;;;;;;;1.03;0.60;;;13.70;75.50;14.10;95496.00;;;;5029940;28;20202;-81
2023/04/13 08:24:09;;;;;;;1.60;0.40;;;13.70;74.80;14.10;95503.00;;;;5025637;28;20722;-82
2023/04/13 08:26:37;;;;;;;0.53;0.40;;;13.80;75.00;14.20;95492.00;;;;5026226;28;20285;-81
2023/04/13 08:29:04;;;;;;;1.37;0.53;;;13.80;75.00;14.30;95500.00;;;;5024159;28;20261;-82
2023/04/13 08:31:32;;;;;;;0.80;0.60;;;13.90;75.20;14.50;95510.00;;;;5023752;28;20212;-81
2023/04/13 08:33:59;;;;;;;3.10;0.80;;;14.00;74.90;14.70;95500.00;;;;5003825;28;20706;-81
2023/04/13 08:36:26;;;;;;;3.27;1.13;;;14.10;74.60;14.80;95504.00;;;;5018698;28;20685;-82
2023/04/13 08:38:55;;;;;;;2.20;0.83;;;14.20;74.20;15.00;95505.00;;;;5018458;28;20205;-81
2023/04/13 08:41:25;;;;;;;1.97;0.67;;;14.40;74.50;15.20;95501.00;;;;5021503;28;20248;-81
2023/04/13 08:43:54;;;;;;;0.97;0.60;;;14.50;74.00;15.30;95504.00;;;;5017746;28;20754;-83
2023/04/13 08:46:22;;;;;;;1.13;0.50;;;14.60;73.60;15.40;95513.00;;;;5023430;28;20225;-81
2023/04/13 08:48:54;;;;;;;2.93;0.90;;;14.80;73.90;15.60;95512.00;;;;5026995;28;20198;-82
2023/04/13 08:51:22;;;;;;;2.43;0.90;;;14.90;72.90;15.70;95506.00;;;;4999207;28;20210;-82
2023/04/13 08:53:53;;;;;;;0.83;0.57;;;15.00;72.30;15.80;95513.00;;;;5028049;28;20226;-82
2023/04/13 08:56:25;;;;;;;1.53;0.60;;;15.10;72.20;15.80;95505.00;;;;5031338;28;20216;-82
2023/04/13 08:58:58;;;;;;;0.80;0.60;;;15.20;70.80;15.90;95490.00;;;;5037868;28;20202;-82
2023/04/13 09:01:27;;;;;;;0.93;0.40;;;15.30;70.70;15.90;95486.00;;;;5027322;28;20764;-82
2023/04/13 09:04:02;;;;;;;2.27;0.50;;;15.30;70.90;15.90;95498.00;;;;5020073;28;20300;-82
2023/04/13 09:06:34;;;;;;;0.33;0.33;;;15.40;70.50;15.80;95497.00;;;;5006106;28;20197;-82
2023/04/13 09:09:05;;;;;;;1.93;0.53;;;15.40;69.70;15.80;95496.00;;;;5002681;28;20221;-82
2023/04/13 09:11:34;;;;;;;0.50;0.50;;;15.40;68.90;15.80;95489.00;;;;4995149;28;20201;-82
2023/04/13 09:14:01;;;;;;;3.13;0.57;;;15.40;68.40;15.80;95503.00;;;;5021083;28;20308;-83
2023/04/13 09:16:28;;;;;;;0.60;0.40;;;15.50;68.80;15.80;95489.00;;;;5026423;28;20261;-82
2023/04/13 09:18:57;;;;;;;1.63;0.60;;;15.50;68.40;15.80;95485.00;;;;5038000;28;20728;-81
2023/04/13 09:21:37;;;;;;;1.70;0.40;;;15.50;67.50;15.80;95498.00;;;;5021625;28;20680;-82
2023/04/13 09:24:06;;;;;;;0.70;0.40;;;15.50;66.60;15.80;95482.00;;;;5032327;28;20773;-82
2023/04/13 09:26:46;;;;;;;1.33;0.50;;;15.50;66.40;15.80;95498.00;;;;5030358;28;20293;-82
2023/04/13 09:29:16;;;;;;;0.50;0.50;;;15.50;65.20;15.80;95491.00;;;;5008066;28;20658;-82
2023/04/13 09:31:45;;;;;;;1.17;0.57;;;15.50;66.10;15.80;95488.00;;;;5024913;28;20675;-82
2023/04/13 09:34:14;;;;;;;0.40;0.30;;;15.50;65.90;15.80;95495.00;;;;5026953;28;20221;-82
2023/04/13 09:36:41;;;;;;;0.70;0.40;;;15.50;65.10;15.80;95497.00;;;;5033434;28;20705;-83
2023/04/13 09:39:09;;;;;;;0.63;0.40;;;15.50;65.80;15.80;95495.00;;;;4996651;28;20194;-82
2023/04/13 09:41:39;;;;;;;1.90;0.40;;;15.50;65.20;15.80;95490.00;;;;5021719;28;20222;-82
2023/04/13 09:44:19;;;;;;;1.53;0.60;;;15.50;64.50;15.80;95499.00;;;;5031896;28;20239;-82
2023/04/13 09:46:57;;;;;;;0.63;0.33;;;15.50;64.00;15.80;95500.00;;;;5014434;28;20223;-83
2023/04/13 09:49:25;;;;;;;1.87;0.73;;;15.50;63.60;15.80;95502.00;;;;5019933;28;20655;-83
2023/04/13 09:51:54;;;;;;;1.87;0.77;;;15.50;64.90;15.90;95491.00;;;;5027621;28;20205;-83
2023/04/13 09:54:22;;;;;;;1.17;0.70;;;15.50;64.20;15.90;95487.00;;;;5019726;28;20225;-82
2023/04/13 09:56:53;;;;;;;1.10;0.60;;;15.60;64.90;15.80;95486.00;;;;5003538;28;20196;-82
2023/04/13 09:59:23;;;;;;;0.40;0.30;;;15.50;64.30;15.80;95488.00;;;;5014467;28;20549;-81
2023/04/13 10:01:53;;;;;;;1.87;0.50;;;15.60;64.30;15.90;95482.00;;;;5033425;28;20221;-82
2023/04/13 10:04:21;;;;;;;1.23;0.60;;;15.60;64.00;16.00;95483.00;;;;5026354;28;20222;-82
2023/04/13 10:06:51;;;;;;;1.90;0.40;;;15.60;64.30;16.00;95481.00;;;;5022964;28;20561;-82
2023/04/13 10:09:20;;;;;;;1.63;0.60;;;15.60;63.20;16.10;95473.00;;;;5024449;28;20204;-82
2023/04/13 10:11:51;;;;;;;0.73;0.30;;;15.70;64.10;16.20;95475.00;;;;5025018;28;20206;-83
2023/04/13 10:14:27;;;;;;;2.40;0.60;;;15.70;63.10;16.20;95467.00;;;;5020846;28;20753;-82
2023/04/13 10:17:39;;;;;;;3.50;1.00;;;15.70;63.10;16.20;95464.00;;;;5019050;28;20280;-83
2023/04/13 10:20:12;;;;;;;1.33;0.60;;;15.80;61.60;16.40;95469.00;;;;5020250;28;20221;-82
2023/04/13 10:22:46;;;;;;;0.30;0.30;;;15.90;64.10;16.50;95463.00;;;;5020077;28;20718;-82
2023/04/13 10:25:14;;;;;;;1.33;0.53;;;16.00;64.70;16.70;95463.00;;;;5022286;28;20227;-83
2023/04/13 10:27:42;;;;;;;0.97;0.43;;;16.10;64.80;16.80;95445.00;;;;5029274;28;20213;-83
2023/04/13 10:30:20;;;;;;;0.77;0.43;;;16.20;64.70;17.00;95452.00;;;;5017438;28;20632;-83
2023/04/13 10:32:47;;;;;;;1.47;0.50;;;16.40;62.90;17.10;95463.00;;;;5026735;28;20236;-83
2023/04/13 10:35:15;;;;;;;1.80;0.50;;;16.50;64.00;17.20;95463.00;;;;5017922;28;20229;-82
2023/04/13 10:37:45;;;;;;;0.97;0.50;;;16.60;64.40;17.30;95460.00;;;;5018119;28;20204;-82
2023/04/13 10:40:13;;;;;;;0.57;0.40;;;16.70;63.30;17.40;95445.00;;;;5020111;28;20232;-82
2023/04/13 10:42:45;;;;;;;0.87;0.30;;;16.80;63.30;17.50;95446.00;;;;5035572;28;20232;-82
2023/04/13 10:45:22;;;;;;;1.43;0.50;;;16.90;62.60;17.50;95448.00;;;;5021142;28;20644;-82
2023/04/13 10:47:51;;;;;;;1.30;0.40;;;17.00;60.90;17.50;95451.00;;;;5019651;28;20686;-82
2023/04/13 10:50:21;;;;;;;6.90;2.40;;;17.00;61.10;17.40;95461.00;;;;5022016;28;20296;-81
2023/04/13 10:53:03;;;;;;;2.27;1.10;;;17.00;59.90;17.40;95459.00;;;;5021217;28;20710;-83
2023/04/13 10:55:31;;;;;;;2.23;1.20;;;17.10;58.90;17.30;95454.00;;;;5033299;28;20198;-83
2023/04/13 10:58:01;;;;;;;1.03;0.70;;;17.00;59.30;17.30;95451.00;;;;5019611;28;20221;-83
2023/04/13 11:00:31;;;;;;;0.60;0.60;;;17.00;59.20;17.20;95443.00;;;;5012614;28;20225;-82
2023/04/13 11:03:01;;;;;;;0.50;0.40;;;16.90;59.20;17.20;95447.00;;;;5018269;28;20214;-84